createdAt,value
2018-12-11T00:00:23.308Z,21.80
2018-12-11T00:00:56.044Z,21.80
2018-12-11T00:01:28.929Z,21.90
2018-12-11T00:02:01.814Z,21.90
2018-12-11T00:02:35.221Z,21.90
2018-12-11T00:03:08.003Z,21.80
2018-12-11T00:03:40.666Z,21.80
2018-12-11T00:04:13.276Z,21.90
2018-12-11T00:04:45.795Z,21.90
2018-12-11T00:05:18.602Z,21.90
2018-12-11T00:05:51.320Z,21.80
2018-12-11T00:06:23.998Z,21.90
2018-12-11T00:06:56.854Z,21.80
2018-12-11T00:07:29.389Z,21.90
2018-12-11T00:08:02.070Z,21.90
2018-12-11T00:08:34.683Z,21.90
2018-12-11T00:09:07.319Z,21.80
2018-12-11T00:09:40.179Z,21.80
2018-12-11T00:10:12.956Z,21.80
2018-12-11T00:10:45.404Z,21.90
2018-12-11T00:11:18.310Z,21.80
2018-12-11T00:11:51.298Z,21.90
2018-12-11T00:12:24.446Z,21.90
2018-12-11T00:12:57.169Z,21.80
2018-12-11T00:13:29.945Z,21.90
2018-12-11T00:14:02.764Z,21.80
2018-12-11T00:14:35.593Z,21.80
2018-12-11T00:15:08.412Z,21.90
2018-12-11T00:15:41.315Z,21.80
2018-12-11T00:16:13.796Z,21.90
2018-12-11T00:16:46.381Z,21.80
2018-12-11T00:17:19.126Z,21.80
2018-12-11T00:17:51.645Z,21.90
2018-12-11T00:18:24.338Z,21.90
2018-12-11T00:18:56.812Z,21.90
2018-12-11T00:19:29.190Z,21.90
2018-12-11T00:20:01.529Z,21.90
2018-12-11T00:20:34.128Z,21.90
2018-12-11T00:21:07.755Z,21.90
2018-12-11T00:21:40.520Z,21.90
2018-12-11T00:22:13.475Z,21.90
2018-12-11T00:22:46.426Z,21.80
2018-12-11T00:23:19.007Z,21.90
2018-12-11T00:23:52.096Z,21.80
2018-12-11T00:24:24.700Z,21.90
2018-12-11T00:24:57.140Z,21.90
2018-12-11T00:25:29.635Z,21.80
2018-12-11T00:26:02.135Z,21.80
2018-12-11T00:26:34.650Z,21.90
2018-12-11T00:27:07.128Z,21.80
2018-12-11T00:27:39.696Z,21.80
2018-12-11T00:28:12.262Z,21.80
2018-12-11T00:28:44.633Z,21.80
2018-12-11T00:29:17.380Z,21.90
2018-12-11T00:29:49.991Z,21.90
2018-12-11T00:30:22.882Z,21.90
2018-12-11T00:30:55.629Z,21.90
2018-12-11T00:31:28.311Z,21.90
2018-12-11T00:32:01.455Z,21.90
2018-12-11T00:32:33.912Z,21.90
2018-12-11T00:33:06.954Z,21.90
2018-12-11T00:33:39.563Z,21.90
2018-12-11T00:34:12.091Z,21.90
2018-12-11T00:34:44.811Z,21.90
2018-12-11T00:35:17.425Z,21.90
2018-12-11T00:35:50.199Z,21.90
2018-12-11T00:36:22.900Z,21.90
2018-12-11T00:36:55.743Z,21.90
2018-12-11T00:37:28.567Z,21.90
2018-12-11T00:38:01.619Z,21.90
2018-12-11T00:38:34.528Z,21.90
2018-12-11T00:39:07.035Z,21.90
2018-12-11T00:39:39.696Z,21.90
2018-12-11T00:40:12.254Z,21.90
2018-12-11T00:40:44.919Z,21.90
2018-12-11T00:41:17.606Z,21.90
2018-12-11T00:41:50.633Z,21.90
2018-12-11T00:42:23.334Z,21.90
2018-12-11T00:42:55.923Z,21.90
2018-12-11T00:43:28.629Z,21.90
2018-12-11T00:44:01.110Z,21.90
2018-12-11T00:44:33.691Z,21.90
2018-12-11T00:45:06.230Z,21.90
2018-12-11T00:45:38.930Z,21.90
2018-12-11T00:46:11.564Z,21.90
2018-12-11T00:46:44.013Z,21.90
2018-12-11T00:47:16.650Z,21.90
2018-12-11T00:47:49.288Z,21.90
2018-12-11T00:48:22.033Z,21.90
2018-12-11T00:48:54.532Z,21.90
2018-12-11T00:49:27.360Z,21.90
2018-12-11T00:49:59.836Z,21.90
2018-12-11T00:50:32.756Z,21.90
2018-12-11T00:51:05.536Z,21.90
2018-12-11T00:51:38.003Z,21.90
2018-12-11T00:52:10.632Z,21.90
2018-12-11T00:52:43.309Z,21.90
2018-12-11T00:53:16.220Z,21.90
2018-12-11T00:53:49.032Z,21.90
2018-12-11T00:54:21.709Z,21.90
2018-12-11T00:54:54.519Z,21.90
2018-12-11T00:55:27.351Z,21.90
2018-12-11T00:55:59.773Z,21.90
2018-12-11T00:56:32.601Z,21.90
2018-12-11T00:57:05.212Z,21.90
2018-12-11T00:57:38.079Z,21.90
2018-12-11T00:58:10.615Z,21.90
2018-12-11T00:58:43.744Z,21.90
2018-12-11T00:59:16.457Z,21.90
2018-12-11T00:59:48.974Z,21.90
2018-12-11T01:00:21.585Z,21.90
2018-12-11T01:00:54.018Z,21.90
2018-12-11T01:01:27.431Z,21.90
2018-12-11T01:02:00.137Z,21.90
2018-12-11T01:02:33.359Z,21.90
2018-12-11T01:03:06.268Z,21.90
2018-12-11T01:03:38.811Z,21.90
2018-12-11T01:04:11.480Z,21.90
2018-12-11T01:04:43.977Z,21.90
2018-12-11T01:05:18.045Z,21.90
2018-12-11T01:05:50.706Z,21.90
2018-12-11T01:06:23.048Z,21.90
2018-12-11T01:06:55.432Z,21.90
2018-12-11T01:07:27.967Z,21.90
2018-12-11T01:08:00.540Z,21.90
2018-12-11T01:08:32.957Z,21.90
2018-12-11T01:09:05.763Z,21.90
2018-12-11T01:09:38.548Z,21.90
2018-12-11T01:10:10.965Z,21.90
2018-12-11T01:10:43.406Z,21.90
2018-12-11T01:11:16.059Z,21.90
2018-12-11T01:11:48.786Z,21.90
2018-12-11T01:12:21.550Z,21.90
2018-12-11T01:12:54.905Z,21.90
2018-12-11T01:13:27.476Z,21.90
2018-12-11T01:14:00.349Z,21.90
2018-12-11T01:14:32.857Z,21.90
2018-12-11T01:15:05.369Z,21.90
2018-12-11T01:15:38.167Z,21.90
2018-12-11T01:16:10.942Z,21.90
2018-12-11T01:16:44.465Z,21.90
2018-12-11T01:17:17.197Z,21.90
2018-12-11T01:17:50.124Z,21.90
2018-12-11T01:18:22.825Z,21.90
2018-12-11T01:18:55.669Z,21.90
2018-12-11T01:19:28.534Z,21.90
2018-12-11T01:20:01.154Z,21.90
2018-12-11T01:20:33.935Z,21.90
2018-12-11T01:21:06.733Z,21.90
2018-12-11T01:21:39.691Z,21.90
2018-12-11T01:22:12.513Z,21.90
2018-12-11T01:22:45.496Z,21.90
2018-12-11T01:23:18.157Z,21.90
2018-12-11T01:23:51.298Z,21.90
2018-12-11T01:24:23.963Z,21.90
2018-12-11T01:24:56.819Z,21.90
2018-12-11T01:25:29.780Z,21.90
2018-12-11T01:26:02.575Z,21.90
2018-12-11T01:26:35.286Z,21.90
2018-12-11T01:27:07.855Z,21.90
2018-12-11T01:27:40.502Z,21.90
2018-12-11T01:28:13.136Z,21.90
2018-12-11T01:28:46.193Z,21.90
2018-12-11T01:29:18.826Z,21.90
2018-12-11T01:29:51.897Z,21.90
2018-12-11T01:30:24.966Z,21.90
2018-12-11T01:30:57.561Z,22.00
2018-12-11T01:31:30.096Z,21.90
2018-12-11T01:32:02.757Z,21.90
2018-12-11T01:32:35.350Z,21.90
2018-12-11T01:33:08.101Z,21.90
2018-12-11T01:33:41.102Z,22.00
2018-12-11T01:34:13.756Z,22.00
2018-12-11T01:34:46.311Z,21.90
2018-12-11T01:35:18.861Z,21.90
2018-12-11T01:35:51.694Z,21.90
2018-12-11T01:36:24.258Z,21.90
2018-12-11T01:36:57.229Z,22.00
2018-12-11T01:37:29.968Z,21.90
2018-12-11T01:38:02.414Z,22.00
2018-12-11T01:38:34.832Z,22.00
2018-12-11T01:39:07.443Z,22.00
2018-12-11T01:39:39.610Z,22.00
2018-12-11T01:40:11.989Z,22.00
2018-12-11T01:40:44.144Z,22.00
2018-12-11T01:41:16.320Z,22.00
2018-12-11T01:41:48.991Z,22.00
2018-12-11T01:42:22.530Z,22.00
2018-12-11T01:42:55.178Z,22.00
2018-12-11T01:43:27.950Z,22.00
2018-12-11T01:44:00.699Z,22.00
2018-12-11T01:44:33.320Z,22.00
2018-12-11T01:45:06.200Z,22.00
2018-12-11T01:45:38.947Z,22.00
2018-12-11T01:46:11.772Z,22.00
2018-12-11T01:46:44.495Z,22.00
2018-12-11T01:47:18.064Z,22.00
2018-12-11T01:47:50.729Z,22.00
2018-12-11T01:48:23.264Z,22.00
2018-12-11T01:48:56.018Z,22.00
2018-12-11T01:49:28.586Z,22.00
2018-12-11T01:50:01.215Z,22.00
2018-12-11T01:50:34.019Z,22.00
2018-12-11T01:51:06.694Z,22.00
2018-12-11T01:51:39.429Z,22.00
2018-12-11T01:52:12.490Z,22.00
2018-12-11T01:52:45.551Z,22.00
2018-12-11T01:53:18.165Z,22.00
2018-12-11T01:53:51.173Z,22.00
2018-12-11T01:54:23.598Z,22.00
2018-12-11T01:54:56.313Z,22.00
2018-12-11T01:55:28.738Z,21.90
2018-12-11T01:56:01.478Z,22.00
2018-12-11T01:56:34.410Z,22.00
2018-12-11T01:57:07.092Z,22.00
2018-12-11T01:57:39.521Z,22.00
2018-12-11T01:58:12.089Z,22.00
2018-12-11T01:58:45.181Z,22.00
2018-12-11T01:59:18.123Z,22.00
2018-12-11T01:59:50.480Z,22.00
2018-12-11T02:00:23.167Z,22.00
2018-12-11T02:00:55.623Z,22.00
2018-12-11T02:01:28.154Z,22.00
2018-12-11T02:02:00.946Z,22.00
2018-12-11T02:02:34.019Z,22.00
2018-12-11T02:03:06.806Z,22.00
2018-12-11T02:03:39.497Z,22.00
2018-12-11T02:04:12.167Z,22.00
2018-12-11T02:04:44.911Z,22.00
2018-12-11T02:05:17.476Z,22.00
2018-12-11T02:05:50.161Z,22.00
2018-12-11T02:06:22.860Z,22.00
2018-12-11T02:06:55.470Z,22.10
2018-12-11T02:07:28.376Z,22.00
2018-12-11T02:08:01.041Z,22.00
2018-12-11T02:08:33.688Z,22.10
2018-12-11T02:09:06.576Z,22.00
2018-12-11T02:09:39.179Z,22.00
2018-12-11T02:10:11.946Z,22.00
2018-12-11T02:10:44.557Z,22.00
2018-12-11T02:11:17.767Z,22.00
2018-12-11T02:11:50.168Z,22.00
2018-12-11T02:12:22.748Z,22.00
2018-12-11T02:12:55.057Z,22.00
2018-12-11T02:13:27.445Z,22.00
2018-12-11T02:13:59.918Z,22.00
2018-12-11T02:14:32.752Z,22.00
2018-12-11T02:15:05.347Z,22.00
2018-12-11T02:15:37.890Z,22.00
2018-12-11T02:16:10.627Z,22.00
2018-12-11T02:16:43.358Z,22.00
2018-12-11T02:17:15.879Z,22.00
2018-12-11T02:17:48.349Z,22.10
2018-12-11T02:18:20.867Z,22.10
2018-12-11T02:18:53.464Z,22.10
2018-12-11T02:19:26.388Z,22.00
2018-12-11T02:19:59.220Z,22.00
2018-12-11T02:20:31.796Z,22.00
2018-12-11T02:21:04.627Z,22.10
2018-12-11T02:21:42.014Z,22.10
2018-12-11T02:22:12.244Z,22.10
2018-12-11T02:22:45.026Z,22.10
2018-12-11T02:23:17.497Z,22.00
2018-12-11T02:23:50.435Z,22.10
2018-12-11T02:24:22.998Z,22.10
2018-12-11T02:24:55.655Z,22.10
2018-12-11T02:25:28.539Z,22.10
2018-12-11T02:26:01.002Z,22.00
2018-12-11T02:26:34.320Z,22.10
2018-12-11T02:27:06.975Z,22.10
2018-12-11T02:27:39.343Z,22.00
2018-12-11T02:28:11.964Z,22.10
2018-12-11T02:28:44.449Z,22.10
2018-12-11T02:29:17.146Z,22.10
2018-12-11T02:29:50.017Z,22.10
2018-12-11T02:30:22.790Z,22.00
2018-12-11T02:30:55.473Z,22.10
2018-12-11T02:31:28.395Z,22.00
2018-12-11T02:32:00.654Z,22.10
2018-12-11T02:32:33.133Z,22.10
2018-12-11T02:33:05.756Z,22.10
2018-12-11T02:33:38.353Z,22.10
2018-12-11T02:34:10.946Z,22.10
2018-12-11T02:34:43.344Z,22.10
2018-12-11T02:35:16.064Z,22.10
2018-12-11T02:35:48.716Z,22.10
2018-12-11T02:36:21.621Z,22.10
2018-12-11T02:36:54.425Z,22.10
2018-12-11T02:37:27.340Z,22.10
2018-12-11T02:37:59.952Z,22.10
2018-12-11T02:38:32.503Z,22.10
2018-12-11T02:39:05.185Z,22.10
2018-12-11T02:39:37.701Z,22.10
2018-12-11T02:40:10.350Z,22.10
2018-12-11T02:40:42.996Z,22.10
2018-12-11T02:41:16.293Z,22.10
2018-12-11T02:41:49.149Z,22.10
2018-12-11T02:42:22.075Z,22.10
2018-12-11T02:42:54.820Z,22.10
2018-12-11T02:43:27.597Z,22.10
2018-12-11T02:44:00.512Z,22.10
2018-12-11T02:44:33.185Z,22.00
2018-12-11T02:45:05.713Z,22.00
2018-12-11T02:45:38.509Z,22.10
2018-12-11T02:46:11.255Z,22.10
2018-12-11T02:46:44.065Z,22.10
2018-12-11T02:47:16.659Z,22.10
2018-12-11T02:47:49.091Z,22.10
2018-12-11T02:48:21.526Z,22.10
2018-12-11T02:48:54.100Z,22.10
2018-12-11T02:49:26.929Z,22.10
2018-12-11T02:49:59.448Z,22.10
2018-12-11T02:50:33.390Z,22.10
2018-12-11T02:51:06.104Z,22.10
2018-12-11T02:51:38.737Z,22.10
2018-12-11T02:52:11.237Z,22.10
2018-12-11T02:52:43.802Z,22.10
2018-12-11T02:53:16.715Z,22.10
2018-12-11T02:53:49.294Z,22.10
2018-12-11T02:54:22.090Z,22.10
2018-12-11T02:54:54.820Z,22.10
2018-12-11T02:55:27.927Z,22.10
2018-12-11T02:56:00.279Z,22.10
2018-12-11T02:56:32.968Z,22.10
2018-12-11T02:57:05.496Z,22.10
2018-12-11T02:57:38.136Z,22.10
2018-12-11T02:58:11.936Z,22.10
2018-12-11T02:58:44.564Z,22.10
2018-12-11T02:59:17.516Z,22.10
2018-12-11T02:59:50.284Z,22.10
2018-12-11T03:00:22.947Z,22.10
2018-12-11T03:00:55.314Z,22.10
2018-12-11T03:01:28.017Z,22.10
2018-12-11T03:02:00.765Z,22.10
2018-12-11T03:02:33.535Z,22.10
2018-12-11T03:03:06.487Z,22.10
2018-12-11T03:03:39.079Z,22.10
2018-12-11T03:04:11.836Z,22.10
2018-12-11T03:04:44.480Z,22.10
2018-12-11T03:05:17.253Z,22.10
2018-12-11T03:05:50.225Z,22.10
2018-12-11T03:06:23.255Z,22.10
2018-12-11T03:06:55.711Z,22.10
2018-12-11T03:07:28.323Z,22.10
2018-12-11T03:08:01.146Z,22.10
2018-12-11T03:08:33.730Z,22.10
2018-12-11T03:09:06.578Z,22.10
2018-12-11T03:09:39.314Z,22.10
2018-12-11T03:10:11.927Z,22.10
2018-12-11T03:10:44.567Z,22.10
2018-12-11T03:11:17.307Z,22.10
2018-12-11T03:11:50.058Z,22.10
2018-12-11T03:12:22.739Z,22.10
2018-12-11T03:12:55.157Z,22.10
2018-12-11T03:13:28.042Z,22.10
2018-12-11T03:14:00.677Z,22.10
2018-12-11T03:14:33.909Z,22.10
2018-12-11T03:15:06.315Z,22.10
2018-12-11T03:15:38.799Z,22.10
2018-12-11T03:16:11.523Z,22.10
2018-12-11T03:16:44.040Z,22.10
2018-12-11T03:17:16.553Z,22.10
2018-12-11T03:17:48.983Z,22.10
2018-12-11T03:18:21.843Z,22.10
2018-12-11T03:18:54.573Z,22.10
2018-12-11T03:19:27.281Z,22.10
2018-12-11T03:19:59.636Z,22.10
2018-12-11T03:20:32.108Z,22.10
2018-12-11T03:21:04.764Z,22.10
2018-12-11T03:21:37.690Z,22.10
2018-12-11T03:22:10.295Z,22.10
2018-12-11T03:22:42.947Z,22.10
2018-12-11T03:23:15.561Z,22.10
2018-12-11T03:23:48.514Z,22.10
2018-12-11T03:24:21.217Z,22.10
2018-12-11T03:24:53.805Z,22.10
2018-12-11T03:25:26.597Z,22.10
2018-12-11T03:25:59.511Z,22.10
2018-12-11T03:26:32.184Z,22.10
2018-12-11T03:27:04.763Z,22.10
2018-12-11T03:27:37.581Z,22.10
2018-12-11T03:28:10.041Z,22.10
2018-12-11T03:28:42.892Z,22.10
2018-12-11T03:29:15.383Z,22.10
2018-12-11T03:29:47.920Z,22.10
2018-12-11T03:30:20.527Z,22.10
2018-12-11T03:30:53.183Z,22.10
2018-12-11T03:31:26.162Z,22.10
2018-12-11T03:31:59.093Z,22.20
2018-12-11T03:32:32.261Z,22.10
2018-12-11T03:33:05.024Z,22.20
2018-12-11T03:33:38.275Z,22.10
2018-12-11T03:34:10.954Z,22.10
2018-12-11T03:34:43.785Z,22.20
2018-12-11T03:35:16.237Z,22.10
2018-12-11T03:35:49.157Z,22.10
2018-12-11T03:36:21.884Z,22.10
2018-12-11T03:36:54.865Z,22.10
2018-12-11T03:37:27.425Z,22.10
2018-12-11T03:38:00.158Z,22.20
2018-12-11T03:38:32.685Z,22.10
2018-12-11T03:39:05.347Z,22.10
2018-12-11T03:39:37.985Z,22.10
2018-12-11T03:40:10.599Z,22.10
2018-12-11T03:40:43.845Z,22.10
2018-12-11T03:41:16.319Z,22.10
2018-12-11T03:41:48.709Z,22.10
2018-12-11T03:42:21.305Z,22.10
2018-12-11T03:42:53.949Z,22.10
2018-12-11T03:43:26.597Z,22.10
2018-12-11T03:43:59.424Z,22.10
2018-12-11T03:44:32.180Z,22.10
2018-12-11T03:45:04.694Z,22.20
2018-12-11T03:45:37.231Z,22.20
2018-12-11T03:46:09.897Z,22.10
2018-12-11T03:46:42.424Z,22.10
2018-12-11T03:47:15.867Z,22.10
2018-12-11T03:47:48.636Z,22.20
2018-12-11T03:48:21.657Z,22.20
2018-12-11T03:48:54.588Z,22.20
2018-12-11T03:49:27.507Z,22.20
2018-12-11T03:50:00.372Z,22.20
2018-12-11T03:50:33.178Z,22.20
2018-12-11T03:51:06.308Z,22.20
2018-12-11T03:51:39.490Z,22.20
2018-12-11T03:52:12.006Z,22.10
2018-12-11T03:52:44.425Z,22.10
2018-12-11T03:53:17.124Z,22.10
2018-12-11T03:53:49.808Z,22.10
2018-12-11T03:54:22.430Z,22.20
2018-12-11T03:54:55.020Z,22.20
2018-12-11T03:55:27.861Z,22.20
2018-12-11T03:56:00.420Z,22.10
2018-12-11T03:56:33.112Z,22.20
2018-12-11T03:57:06.149Z,22.20
2018-12-11T03:57:39.033Z,22.20
2018-12-11T03:58:11.692Z,22.10
2018-12-11T03:58:44.165Z,22.10
2018-12-11T03:59:16.788Z,22.20
2018-12-11T03:59:49.957Z,22.20
2018-12-11T04:00:22.562Z,22.20
2018-12-11T04:00:55.298Z,22.20
2018-12-11T04:01:28.251Z,22.20
2018-12-11T04:02:01.248Z,22.20
2018-12-11T04:02:34.526Z,22.20
2018-12-11T04:03:07.349Z,22.20
2018-12-11T04:03:39.582Z,22.20
2018-12-11T04:04:11.944Z,22.20
2018-12-11T04:04:44.348Z,22.20
2018-12-11T04:05:16.970Z,22.20
2018-12-11T04:05:49.754Z,22.20
2018-12-11T04:06:22.247Z,22.20
2018-12-11T04:06:54.852Z,22.20
2018-12-11T04:07:27.419Z,22.20
2018-12-11T04:08:00.098Z,22.20
2018-12-11T04:08:33.360Z,22.20
2018-12-11T04:09:06.372Z,22.20
2018-12-11T04:09:38.967Z,22.20
2018-12-11T04:10:12.034Z,22.20
2018-12-11T04:10:44.808Z,22.10
2018-12-11T04:11:18.081Z,22.20
2018-12-11T04:11:51.344Z,22.10
2018-12-11T04:12:24.166Z,22.20
2018-12-11T04:12:56.834Z,22.20
2018-12-11T04:13:29.649Z,22.10
2018-12-11T04:14:02.314Z,22.10
2018-12-11T04:14:35.209Z,22.10
2018-12-11T04:15:08.298Z,22.10
2018-12-11T04:15:41.103Z,22.20
2018-12-11T04:16:13.933Z,22.20
2018-12-11T04:16:46.569Z,22.20
2018-12-11T04:17:19.697Z,22.20
2018-12-11T04:17:52.740Z,22.20
2018-12-11T04:18:25.488Z,22.20
2018-12-11T04:18:58.308Z,22.20
2018-12-11T04:19:30.998Z,22.20
2018-12-11T04:20:03.805Z,22.20
2018-12-11T04:20:36.340Z,22.10
2018-12-11T04:21:09.302Z,22.20
2018-12-11T04:21:42.276Z,22.20
2018-12-11T04:22:15.073Z,22.20
2018-12-11T04:22:47.695Z,22.20
2018-12-11T04:23:20.623Z,22.20
2018-12-11T04:23:53.698Z,22.20
2018-12-11T04:24:26.555Z,22.20
2018-12-11T04:24:59.714Z,22.20
2018-12-11T04:25:32.303Z,22.20
2018-12-11T04:26:04.868Z,22.20
2018-12-11T04:26:37.655Z,22.20
2018-12-11T04:27:10.249Z,22.20
2018-12-11T04:27:42.808Z,22.20
2018-12-11T04:28:15.515Z,22.20
2018-12-11T04:28:47.905Z,22.10
2018-12-11T04:29:20.409Z,22.20
2018-12-11T04:29:53.214Z,22.20
2018-12-11T04:30:25.777Z,22.20
2018-12-11T04:30:58.321Z,22.20
2018-12-11T04:31:31.339Z,22.20
2018-12-11T04:32:04.223Z,22.20
2018-12-11T04:32:36.775Z,22.20
2018-12-11T04:33:09.265Z,22.20
2018-12-11T04:33:42.090Z,22.20
2018-12-11T04:34:14.678Z,22.20
2018-12-11T04:34:47.580Z,22.20
2018-12-11T04:35:20.121Z,22.20
2018-12-11T04:35:52.786Z,22.20
2018-12-11T04:36:25.478Z,22.20
2018-12-11T04:36:59.018Z,22.20
2018-12-11T04:37:31.422Z,22.20
2018-12-11T04:38:04.109Z,22.20
2018-12-11T04:38:36.839Z,22.20
2018-12-11T04:39:09.382Z,22.20
2018-12-11T04:39:41.990Z,22.20
2018-12-11T04:40:14.886Z,22.20
2018-12-11T04:40:47.422Z,22.20
2018-12-11T04:41:20.136Z,22.20
2018-12-11T04:41:53.078Z,22.20
2018-12-11T04:42:25.656Z,22.20
2018-12-11T04:42:58.418Z,22.20
2018-12-11T04:43:30.741Z,22.20
2018-12-11T04:44:03.317Z,22.20
2018-12-11T04:44:35.977Z,22.20
2018-12-11T04:45:08.565Z,22.20
2018-12-11T04:45:41.178Z,22.20
2018-12-11T04:46:14.294Z,22.20
2018-12-11T04:46:47.084Z,22.20
2018-12-11T04:47:19.778Z,22.20
2018-12-11T04:47:52.528Z,22.20
2018-12-11T04:48:25.019Z,22.20
2018-12-11T04:48:57.799Z,22.20
2018-12-11T04:49:30.688Z,22.20
2018-12-11T04:50:03.540Z,22.20
2018-12-11T04:50:36.482Z,22.20
2018-12-11T04:51:09.049Z,22.20
2018-12-11T04:51:42.182Z,22.20
2018-12-11T04:52:15.063Z,22.20
2018-12-11T04:52:47.627Z,22.20
2018-12-11T04:53:20.370Z,22.20
2018-12-11T04:53:53.062Z,22.20
2018-12-11T04:54:25.678Z,22.20
2018-12-11T04:54:58.160Z,22.20
2018-12-11T04:55:30.638Z,22.20
2018-12-11T04:56:03.170Z,22.20
2018-12-11T04:56:35.835Z,22.20
2018-12-11T04:57:08.474Z,22.20
2018-12-11T04:57:41.125Z,22.20
2018-12-11T04:58:13.966Z,22.20
2018-12-11T04:58:46.731Z,22.20
2018-12-11T04:59:19.640Z,22.20
2018-12-11T04:59:52.377Z,22.20
2018-12-11T05:00:25.108Z,22.20
2018-12-11T05:00:57.940Z,22.20
2018-12-11T05:01:30.692Z,22.20
2018-12-11T05:02:03.220Z,22.20
2018-12-11T05:02:35.947Z,22.20
2018-12-11T05:03:08.790Z,22.10
2018-12-11T05:03:41.178Z,22.10
2018-12-11T05:04:14.072Z,22.00
2018-12-11T05:04:46.698Z,21.90
2018-12-11T05:05:19.352Z,21.80
2018-12-11T05:05:51.989Z,21.70
2018-12-11T05:06:24.683Z,21.60
2018-12-11T05:06:57.241Z,21.60
2018-12-11T05:07:29.806Z,21.50
2018-12-11T05:08:02.428Z,21.40
2018-12-11T05:08:35.026Z,21.40
2018-12-11T05:09:07.498Z,21.40
2018-12-11T05:09:40.068Z,21.40
2018-12-11T05:10:12.511Z,21.40
2018-12-11T05:10:45.132Z,21.40
2018-12-11T05:11:17.693Z,21.40
2018-12-11T05:11:50.202Z,21.40
2018-12-11T05:12:23.091Z,21.40
2018-12-11T05:12:55.696Z,21.40
2018-12-11T05:13:28.282Z,21.40
2018-12-11T05:14:01.200Z,21.40
2018-12-11T05:14:33.733Z,21.40
2018-12-11T05:15:06.662Z,21.40
2018-12-11T05:15:39.467Z,21.50
2018-12-11T05:16:11.921Z,21.50
2018-12-11T05:16:44.274Z,21.40
2018-12-11T05:17:16.898Z,21.50
2018-12-11T05:17:49.696Z,21.50
2018-12-11T05:18:22.359Z,21.50
2018-12-11T05:18:55.058Z,21.50
2018-12-11T05:19:27.738Z,21.50
2018-12-11T05:20:00.453Z,21.50
2018-12-11T05:20:34.112Z,21.60
2018-12-11T05:21:06.692Z,21.60
2018-12-11T05:21:39.336Z,21.60
2018-12-11T05:22:11.901Z,21.60
2018-12-11T05:22:44.965Z,21.70
2018-12-11T05:23:17.705Z,21.80
2018-12-11T05:23:50.367Z,21.80
2018-12-11T05:24:23.207Z,21.90
2018-12-11T05:24:56.250Z,21.90
2018-12-11T05:25:28.802Z,21.90
2018-12-11T05:26:01.253Z,22.00
2018-12-11T05:26:34.021Z,21.90
2018-12-11T05:27:07.005Z,21.90
2018-12-11T05:27:39.563Z,21.90
2018-12-11T05:28:12.129Z,21.90
2018-12-11T05:28:44.662Z,21.90
2018-12-11T05:29:17.363Z,21.90
2018-12-11T05:29:49.820Z,21.90
2018-12-11T05:30:22.491Z,21.90
2018-12-11T05:30:54.973Z,21.90
2018-12-11T05:31:27.741Z,22.00
2018-12-11T05:32:01.031Z,22.00
2018-12-11T05:32:33.858Z,22.00
2018-12-11T05:33:06.644Z,22.00
2018-12-11T05:33:39.214Z,22.10
2018-12-11T05:34:11.928Z,22.20
2018-12-11T05:34:44.546Z,22.20
2018-12-11T05:35:17.212Z,22.30
2018-12-11T05:35:49.775Z,22.30
2018-12-11T05:36:22.235Z,22.20
2018-12-11T05:36:55.129Z,22.20
2018-12-11T05:37:28.759Z,22.10
2018-12-11T05:38:01.673Z,22.00
2018-12-11T05:38:34.486Z,22.00
2018-12-11T05:39:07.231Z,22.10
2018-12-11T05:39:40.171Z,22.10
2018-12-11T05:40:12.942Z,22.10
2018-12-11T05:40:45.882Z,22.20
2018-12-11T05:41:19.071Z,22.20
2018-12-11T05:41:51.555Z,22.20
2018-12-11T05:42:24.424Z,22.10
2018-12-11T05:42:56.914Z,22.00
2018-12-11T05:43:29.672Z,21.90
2018-12-11T05:44:02.029Z,21.90
2018-12-11T05:44:34.738Z,21.90
2018-12-11T05:45:07.367Z,21.90
2018-12-11T05:45:39.908Z,22.00
2018-12-11T05:46:12.417Z,22.00
2018-12-11T05:46:44.995Z,22.00
2018-12-11T05:47:17.632Z,22.10
2018-12-11T05:47:50.249Z,22.10
2018-12-11T05:48:22.990Z,22.10
2018-12-11T05:48:56.276Z,22.10
2018-12-11T05:49:29.074Z,22.10
2018-12-11T05:50:01.892Z,22.10
2018-12-11T05:50:34.396Z,22.20
2018-12-11T05:51:07.102Z,22.20
2018-12-11T05:51:39.625Z,22.20
2018-12-11T05:52:12.398Z,22.20
2018-12-11T05:52:44.997Z,22.20
2018-12-11T05:53:17.528Z,22.20
2018-12-11T05:53:50.045Z,22.20
2018-12-11T05:54:22.798Z,22.20
2018-12-11T05:54:55.470Z,22.20
2018-12-11T05:55:28.081Z,22.20
2018-12-11T05:56:00.542Z,22.20
2018-12-11T05:56:33.133Z,22.20
2018-12-11T05:57:05.730Z,22.20
2018-12-11T05:57:38.377Z,22.20
2018-12-11T05:58:10.865Z,22.20
2018-12-11T05:58:43.845Z,22.20
2018-12-11T05:59:16.604Z,22.30
2018-12-11T05:59:49.333Z,22.20
2018-12-11T06:00:22.364Z,22.20
2018-12-11T06:00:55.145Z,22.20
2018-12-11T06:01:27.631Z,22.20
2018-12-11T06:02:00.258Z,22.30
2018-12-11T06:02:33.197Z,22.20
2018-12-11T06:03:05.859Z,22.20
2018-12-11T06:03:38.546Z,22.20
2018-12-11T06:04:11.108Z,22.30
2018-12-11T06:04:44.583Z,22.20
2018-12-11T06:05:17.281Z,22.20
2018-12-11T06:05:50.522Z,22.20
2018-12-11T06:06:23.021Z,22.20
2018-12-11T06:06:55.800Z,22.20
2018-12-11T06:07:28.571Z,22.20
2018-12-11T06:08:02.743Z,22.20
2018-12-11T06:08:35.670Z,22.20
2018-12-11T06:09:08.029Z,22.20
2018-12-11T06:09:40.904Z,22.20
2018-12-11T06:10:13.681Z,22.20
2018-12-11T06:10:46.244Z,22.20
2018-12-11T06:11:19.077Z,22.20
2018-12-11T06:11:51.956Z,22.20
2018-12-11T06:12:24.816Z,22.20
2018-12-11T06:12:57.306Z,22.20
2018-12-11T06:13:29.857Z,22.20
2018-12-11T06:14:02.428Z,22.20
2018-12-11T06:14:35.217Z,22.30
2018-12-11T06:15:07.794Z,22.30
2018-12-11T06:15:40.419Z,22.30
2018-12-11T06:16:13.039Z,22.30
2018-12-11T06:16:45.678Z,22.30
2018-12-11T06:17:18.395Z,22.30
2018-12-11T06:17:51.370Z,22.30
2018-12-11T06:18:24.474Z,22.30
2018-12-11T06:18:57.182Z,22.30
2018-12-11T06:19:29.720Z,22.30
2018-12-11T06:20:02.087Z,22.20
2018-12-11T06:20:34.746Z,22.30
2018-12-11T06:21:07.304Z,22.20
2018-12-11T06:21:39.965Z,22.30
2018-12-11T06:22:12.755Z,22.20
2018-12-11T06:22:45.292Z,22.20
2018-12-11T06:23:17.756Z,22.20
2018-12-11T06:23:50.166Z,22.20
2018-12-11T06:24:23.615Z,22.30
2018-12-11T06:24:56.471Z,22.20
2018-12-11T06:25:29.160Z,22.20
2018-12-11T06:26:01.768Z,22.20
2018-12-11T06:26:34.535Z,22.20
2018-12-11T06:27:07.480Z,22.20
2018-12-11T06:27:40.323Z,22.20
2018-12-11T06:28:13.025Z,22.20
2018-12-11T06:28:45.755Z,22.20
2018-12-11T06:29:18.646Z,22.20
2018-12-11T06:29:51.354Z,22.20
2018-12-11T06:30:24.098Z,22.20
2018-12-11T06:30:56.764Z,22.20
2018-12-11T06:31:29.248Z,22.20
2018-12-11T06:32:01.872Z,22.20
2018-12-11T06:32:34.472Z,22.20
2018-12-11T06:33:07.201Z,22.20
2018-12-11T06:33:40.069Z,22.20
2018-12-11T06:34:12.840Z,22.20
2018-12-11T06:34:45.376Z,22.20
2018-12-11T06:35:18.440Z,22.20
2018-12-11T06:35:51.161Z,22.20
2018-12-11T06:36:24.097Z,22.20
2018-12-11T06:36:56.772Z,22.20
2018-12-11T06:37:29.697Z,22.20
2018-12-11T06:38:02.444Z,22.20
2018-12-11T06:38:35.081Z,22.20
2018-12-11T06:39:08.075Z,22.20
2018-12-11T06:39:40.459Z,22.20
2018-12-11T06:40:12.922Z,22.20
2018-12-11T06:40:45.564Z,22.20
2018-12-11T06:41:18.533Z,22.20
2018-12-11T06:41:51.312Z,22.20
2018-12-11T06:42:23.835Z,22.20
2018-12-11T06:42:56.707Z,22.20
2018-12-11T06:43:29.283Z,22.20
2018-12-11T06:44:01.783Z,22.20
2018-12-11T06:44:34.836Z,22.20
2018-12-11T06:45:07.443Z,22.20
2018-12-11T06:45:40.461Z,22.20
2018-12-11T06:46:13.009Z,22.20
2018-12-11T06:46:45.804Z,22.20
2018-12-11T06:47:18.779Z,22.20
2018-12-11T06:47:51.766Z,22.20
2018-12-11T06:48:24.279Z,22.20
2018-12-11T06:48:57.052Z,22.20
2018-12-11T06:49:29.855Z,22.20
2018-12-11T06:50:02.505Z,22.20
2018-12-11T06:50:34.940Z,22.20
2018-12-11T06:51:07.518Z,22.20
2018-12-11T06:51:40.115Z,22.20
2018-12-11T06:52:12.839Z,22.20
2018-12-11T06:52:45.666Z,22.20
2018-12-11T06:53:18.486Z,22.20
2018-12-11T06:53:51.240Z,22.20
2018-12-11T06:54:24.010Z,22.20
2018-12-11T06:54:56.774Z,22.20
2018-12-11T06:55:29.303Z,22.20
2018-12-11T06:56:02.324Z,22.20
2018-12-11T06:56:35.350Z,22.20
2018-12-11T06:57:08.199Z,22.20
2018-12-11T06:57:40.771Z,22.20
2018-12-11T06:58:13.439Z,22.20
2018-12-11T06:58:46.886Z,22.20
2018-12-11T06:59:19.567Z,22.20
2018-12-11T06:59:52.320Z,22.20
2018-12-11T07:00:24.978Z,22.20
2018-12-11T07:00:57.581Z,22.20
2018-12-11T07:01:31.051Z,22.20